sensor_id;sensor_type;location;lat;lon;timestamp;P1;durP1;ratioP1;P2;durP2;ratioP2
71975;SDS011;68326;52.124;5.424;2023-10-31T00:01:57;3.28;;;0.10;;
71975;SDS011;68326;52.124;5.424;2023-10-31T00:04:23;0.73;;;0.10;;
71975;SDS011;68326;52.124;5.424;2023-10-31T00:06:50;4.03;;;0.10;;
71975;SDS011;68326;52.124;5.424;2023-10-31T00:09:16;1.10;;;0.10;;
71975;SDS011;68326;52.124;5.424;2023-10-31T00:11:43;0.50;;;0.40;;
71975;SDS011;68326;52.124;5.424;2023-10-31T00:14:10;0.98;;;0.15;;
71975;SDS011;68326;52.124;5.424;2023-10-31T00:16:56;3.53;;;0.20;;
71975;SDS011;68326;52.124;5.424;2023-10-31T00:19:23;2.75;;;0.10;;
71975;SDS011;68326;52.124;5.424;2023-10-31T00:21:49;1.38;;;0.10;;
71975;SDS011;68326;52.124;5.424;2023-10-31T00:24:16;2.50;;;0.10;;
71975;SDS011;68326;52.124;5.424;2023-10-31T00:26:42;1.00;;;0.20;;
71975;SDS011;68326;52.124;5.424;2023-10-31T00:29:09;1.98;;;0.20;;
71975;SDS011;68326;52.124;5.424;2023-10-31T00:31:35;1.20;;;0.30;;
71975;SDS011;68326;52.124;5.424;2023-10-31T00:34:02;2.20;;;0.30;;
71975;SDS011;68326;52.124;5.424;2023-10-31T00:36:29;1.23;;;0.37;;
71975;SDS011;68326;52.124;5.424;2023-10-31T00:38:55;3.38;;;0.50;;
71975;SDS011;68326;52.124;5.424;2023-10-31T00:41:21;1.63;;;0.68;;
71975;SDS011;68326;52.124;5.424;2023-10-31T00:43:48;3.75;;;0.90;;
71975;SDS011;68326;52.124;5.424;2023-10-31T00:46:14;3.72;;;0.77;;
71975;SDS011;68326;52.124;5.424;2023-10-31T00:48:41;3.60;;;0.80;;
71975;SDS011;68326;52.124;5.424;2023-10-31T00:51:07;2.05;;;1.00;;
71975;SDS011;68326;52.124;5.424;2023-10-31T00:53:34;5.65;;;1.35;;
71975;SDS011;68326;52.124;5.424;2023-10-31T00:56:01;3.50;;;1.63;;
71975;SDS011;68326;52.124;5.424;2023-10-31T00:58:28;4.32;;;1.35;;
71975;SDS011;68326;52.124;5.424;2023-10-31T01:00:55;5.53;;;1.80;;
71975;SDS011;68326;52.124;5.424;2023-10-31T01:03:22;5.38;;;1.90;;
71975;SDS011;68326;52.124;5.424;2023-10-31T01:05:48;6.60;;;2.08;;
71975;SDS011;68326;52.124;5.424;2023-10-31T01:08:15;5.35;;;1.83;;
71975;SDS011;68326;52.124;5.424;2023-10-31T01:10:41;5.07;;;2.10;;
71975;SDS011;68326;52.124;5.424;2023-10-31T01:13:08;4.50;;;2.00;;
71975;SDS011;68326;52.124;5.424;2023-10-31T01:15:34;4.82;;;1.90;;
71975;SDS011;68326;52.124;5.424;2023-10-31T01:18:01;5.90;;;2.00;;
71975;SDS011;68326;52.124;5.424;2023-10-31T01:20:27;5.75;;;1.95;;
71975;SDS011;68326;52.124;5.424;2023-10-31T01:22:54;4.78;;;2.00;;
71975;SDS011;68326;52.124;5.424;2023-10-31T01:25:20;3.60;;;1.77;;
71975;SDS011;68326;52.124;5.424;2023-10-31T01:27:46;5.70;;;1.77;;
71975;SDS011;68326;52.124;5.424;2023-10-31T01:30:13;5.30;;;2.20;;
71975;SDS011;68326;52.124;5.424;2023-10-31T01:32:40;4.68;;;2.00;;
71975;SDS011;68326;52.124;5.424;2023-10-31T01:35:06;4.63;;;2.00;;
71975;SDS011;68326;52.124;5.424;2023-10-31T01:37:33;6.67;;;2.00;;
71975;SDS011;68326;52.124;5.424;2023-10-31T01:40:00;4.95;;;1.80;;
71975;SDS011;68326;52.124;5.424;2023-10-31T01:42:26;5.22;;;1.95;;
71975;SDS011;68326;52.124;5.424;2023-10-31T01:44:53;4.50;;;2.13;;
71975;SDS011;68326;52.124;5.424;2023-10-31T01:47:19;5.75;;;2.13;;
71975;SDS011;68326;52.124;5.424;2023-10-31T01:49:46;4.07;;;2.13;;
71975;SDS011;68326;52.124;5.424;2023-10-31T01:52:12;4.55;;;1.98;;
71975;SDS011;68326;52.124;5.424;2023-10-31T01:54:39;5.32;;;2.28;;
71975;SDS011;68326;52.124;5.424;2023-10-31T01:57:05;6.32;;;2.10;;
71975;SDS011;68326;52.124;5.424;2023-10-31T01:59:32;6.78;;;2.50;;
71975;SDS011;68326;52.124;5.424;2023-10-31T02:01:58;4.50;;;2.27;;
71975;SDS011;68326;52.124;5.424;2023-10-31T02:04:26;5.65;;;1.98;;
71975;SDS011;68326;52.124;5.424;2023-10-31T02:06:53;4.20;;;1.88;;
71975;SDS011;68326;52.124;5.424;2023-10-31T02:09:19;10.10;;;2.53;;
71975;SDS011;68326;52.124;5.424;2023-10-31T02:11:50;4.82;;;2.22;;
71975;SDS011;68326;52.124;5.424;2023-10-31T02:14:17;6.87;;;2.73;;
71975;SDS011;68326;52.124;5.424;2023-10-31T02:16:44;7.65;;;3.15;;
71975;SDS011;68326;52.124;5.424;2023-10-31T02:19:10;7.10;;;2.90;;
71975;SDS011;68326;52.124;5.424;2023-10-31T02:21:41;8.13;;;3.80;;
71975;SDS011;68326;52.124;5.424;2023-10-31T02:24:07;8.40;;;3.25;;
71975;SDS011;68326;52.124;5.424;2023-10-31T02:26:34;6.43;;;3.23;;
71975;SDS011;68326;52.124;5.424;2023-10-31T02:29:01;7.25;;;3.25;;
71975;SDS011;68326;52.124;5.424;2023-10-31T02:31:28;7.75;;;3.38;;
71975;SDS011;68326;52.124;5.424;2023-10-31T02:33:55;6.28;;;3.30;;
71975;SDS011;68326;52.124;5.424;2023-10-31T02:36:22;8.73;;;3.25;;
71975;SDS011;68326;52.124;5.424;2023-10-31T02:38:49;6.67;;;3.37;;
71975;SDS011;68326;52.124;5.424;2023-10-31T02:41:15;5.72;;;3.17;;
71975;SDS011;68326;52.124;5.424;2023-10-31T02:43:43;6.78;;;3.20;;
71975;SDS011;68326;52.124;5.424;2023-10-31T02:46:09;6.68;;;3.05;;
71975;SDS011;68326;52.124;5.424;2023-10-31T02:48:38;7.68;;;2.92;;
71975;SDS011;68326;52.124;5.424;2023-10-31T02:51:06;5.93;;;2.40;;
71975;SDS011;68326;52.124;5.424;2023-10-31T02:53:35;5.40;;;2.40;;
71975;SDS011;68326;52.124;5.424;2023-10-31T02:56:02;4.45;;;2.20;;
71975;SDS011;68326;52.124;5.424;2023-10-31T02:58:30;4.95;;;1.65;;
71975;SDS011;68326;52.124;5.424;2023-10-31T03:00:56;3.97;;;1.85;;
71975;SDS011;68326;52.124;5.424;2023-10-31T03:03:23;3.33;;;1.80;;
71975;SDS011;68326;52.124;5.424;2023-10-31T03:05:49;3.60;;;1.45;;
71975;SDS011;68326;52.124;5.424;2023-10-31T03:08:16;2.95;;;1.65;;
71975;SDS011;68326;52.124;5.424;2023-10-31T03:10:49;4.28;;;1.40;;
71975;SDS011;68326;52.124;5.424;2023-10-31T03:13:17;5.10;;;1.20;;
71975;SDS011;68326;52.124;5.424;2023-10-31T03:15:44;5.30;;;1.40;;
71975;SDS011;68326;52.124;5.424;2023-10-31T03:18:11;6.82;;;1.30;;
71975;SDS011;68326;52.124;5.424;2023-10-31T03:20:37;3.28;;;1.20;;
71975;SDS011;68326;52.124;5.424;2023-10-31T03:23:04;3.90;;;1.27;;
71975;SDS011;68326;52.124;5.424;2023-10-31T03:25:30;3.83;;;1.50;;
71975;SDS011;68326;52.124;5.424;2023-10-31T03:27:57;4.63;;;1.40;;
71975;SDS011;68326;52.124;5.424;2023-10-31T03:30:23;3.90;;;1.45;;
71975;SDS011;68326;52.124;5.424;2023-10-31T03:32:50;4.53;;;1.27;;
71975;SDS011;68326;52.124;5.424;2023-10-31T03:35:17;5.35;;;1.17;;
71975;SDS011;68326;52.124;5.424;2023-10-31T03:37:43;4.38;;;1.08;;
71975;SDS011;68326;52.124;5.424;2023-10-31T03:40:10;4.97;;;0.93;;
71975;SDS011;68326;52.124;5.424;2023-10-31T03:42:37;4.53;;;1.00;;
71975;SDS011;68326;52.124;5.424;2023-10-31T03:45:03;3.55;;;0.80;;
71975;SDS011;68326;52.124;5.424;2023-10-31T03:47:31;2.38;;;0.73;;
71975;SDS011;68326;52.124;5.424;2023-10-31T03:49:57;2.63;;;0.38;;
71975;SDS011;68326;52.124;5.424;2023-10-31T03:52:24;1.67;;;0.40;;
71975;SDS011;68326;52.124;5.424;2023-10-31T03:54:50;1.58;;;0.20;;
71975;SDS011;68326;52.124;5.424;2023-10-31T03:57:16;2.95;;;0.40;;
71975;SDS011;68326;52.124;5.424;2023-10-31T03:59:43;1.30;;;0.20;;
71975;SDS011;68326;52.124;5.424;2023-10-31T04:02:09;4.35;;;0.25;;
71975;SDS011;68326;52.124;5.424;2023-10-31T04:04:36;2.60;;;0.20;;
71975;SDS011;68326;52.124;5.424;2023-10-31T04:07:03;0.45;;;0.10;;
71975;SDS011;68326;52.124;5.424;2023-10-31T04:09:29;1.17;;;0.17;;
71975;SDS011;68326;52.124;5.424;2023-10-31T04:11:55;0.70;;;0.10;;
71975;SDS011;68326;52.124;5.424;2023-10-31T04:14:22;0.88;;;0.00;;
71975;SDS011;68326;52.124;5.424;2023-10-31T04:16:48;0.63;;;0.00;;
71975;SDS011;68326;52.124;5.424;2023-10-31T04:19:15;0.65;;;0.10;;
71975;SDS011;68326;52.124;5.424;2023-10-31T04:21:41;3.53;;;0.10;;
71975;SDS011;68326;52.124;5.424;2023-10-31T04:24:08;0.73;;;0.00;;
71975;SDS011;68326;52.124;5.424;2023-10-31T04:26:34;2.85;;;0.10;;
71975;SDS011;68326;52.124;5.424;2023-10-31T04:29:01;0.87;;;0.00;;
71975;SDS011;68326;52.124;5.424;2023-10-31T04:31:27;1.02;;;0.10;;
71975;SDS011;68326;52.124;5.424;2023-10-31T04:34:07;1.10;;;0.10;;
71975;SDS011;68326;52.124;5.424;2023-10-31T04:36:34;1.27;;;0.10;;
71975;SDS011;68326;52.124;5.424;2023-10-31T04:39:00;1.20;;;0.10;;
71975;SDS011;68326;52.124;5.424;2023-10-31T04:41:27;1.90;;;0.10;;
71975;SDS011;68326;52.124;5.424;2023-10-31T04:43:54;1.38;;;0.15;;
71975;SDS011;68326;52.124;5.424;2023-10-31T04:46:20;2.42;;;0.13;;
71975;SDS011;68326;52.124;5.424;2023-10-31T04:48:48;1.05;;;0.20;;
71975;SDS011;68326;52.124;5.424;2023-10-31T04:51:14;1.15;;;0.20;;
71975;SDS011;68326;52.124;5.424;2023-10-31T04:53:41;1.20;;;0.20;;
71975;SDS011;68326;52.124;5.424;2023-10-31T04:56:11;2.47;;;0.20;;
71975;SDS011;68326;52.124;5.424;2023-10-31T04:58:40;1.75;;;0.20;;
71975;SDS011;68326;52.124;5.424;2023-10-31T05:01:08;1.48;;;0.20;;
71975;SDS011;68326;52.124;5.424;2023-10-31T05:03:35;1.27;;;0.10;;
71975;SDS011;68326;52.124;5.424;2023-10-31T05:06:02;2.03;;;0.10;;
71975;SDS011;68326;52.124;5.424;2023-10-31T05:08:29;1.00;;;0.20;;
71975;SDS011;68326;52.124;5.424;2023-10-31T05:10:57;1.08;;;0.10;;
71975;SDS011;68326;52.124;5.424;2023-10-31T05:13:24;1.17;;;0.10;;
71975;SDS011;68326;52.124;5.424;2023-10-31T05:15:51;1.30;;;0.10;;
71975;SDS011;68326;52.124;5.424;2023-10-31T05:18:17;1.43;;;0.20;;
71975;SDS011;68326;52.124;5.424;2023-10-31T05:20:44;0.65;;;0.10;;
71975;SDS011;68326;52.124;5.424;2023-10-31T05:23:11;1.10;;;0.10;;
71975;SDS011;68326;52.124;5.424;2023-10-31T05:25:37;0.47;;;0.10;;
71975;SDS011;68326;52.124;5.424;2023-10-31T05:28:04;0.75;;;0.10;;
71975;SDS011;68326;52.124;5.424;2023-10-31T05:30:30;0.50;;;0.00;;
71975;SDS011;68326;52.124;5.424;2023-10-31T05:32:57;1.02;;;0.10;;
71975;SDS011;68326;52.124;5.424;2023-10-31T05:35:24;2.38;;;0.10;;
71975;SDS011;68326;52.124;5.424;2023-10-31T05:37:51;0.68;;;0.10;;
71975;SDS011;68326;52.124;5.424;2023-10-31T05:40:17;0.77;;;0.10;;
71975;SDS011;68326;52.124;5.424;2023-10-31T05:42:44;0.57;;;0.10;;
71975;SDS011;68326;52.124;5.424;2023-10-31T05:45:10;0.68;;;0.10;;
71975;SDS011;68326;52.124;5.424;2023-10-31T05:47:37;1.15;;;0.20;;
71975;SDS011;68326;52.124;5.424;2023-10-31T05:50:03;0.60;;;0.20;;
71975;SDS011;68326;52.124;5.424;2023-10-31T05:52:32;1.17;;;0.30;;
71975;SDS011;68326;52.124;5.424;2023-10-31T05:54:58;2.23;;;0.50;;
71975;SDS011;68326;52.124;5.424;2023-10-31T05:57:25;0.65;;;0.20;;
71975;SDS011;68326;52.124;5.424;2023-10-31T05:59:51;1.45;;;0.40;;
71975;SDS011;68326;52.124;5.424;2023-10-31T06:02:18;3.78;;;0.50;;
71975;SDS011;68326;52.124;5.424;2023-10-31T06:04:44;1.13;;;0.57;;
71975;SDS011;68326;52.124;5.424;2023-10-31T06:07:11;2.07;;;0.67;;
71975;SDS011;68326;52.124;5.424;2023-10-31T06:09:38;1.85;;;0.60;;
71975;SDS011;68326;52.124;5.424;2023-10-31T06:12:04;1.85;;;0.70;;
71975;SDS011;68326;52.124;5.424;2023-10-31T06:14:31;2.78;;;0.70;;
71975;SDS011;68326;52.124;5.424;2023-10-31T06:16:58;2.75;;;0.80;;
71975;SDS011;68326;52.124;5.424;2023-10-31T06:19:25;2.47;;;0.83;;
71975;SDS011;68326;52.124;5.424;2023-10-31T06:21:52;4.68;;;0.95;;
71975;SDS011;68326;52.124;5.424;2023-10-31T06:24:18;3.53;;;1.35;;
71975;SDS011;68326;52.124;5.424;2023-10-31T06:26:45;3.40;;;1.10;;
71975;SDS011;68326;52.124;5.424;2023-10-31T06:29:11;4.93;;;1.27;;
71975;SDS011;68326;52.124;5.424;2023-10-31T06:31:58;3.50;;;1.13;;
71975;SDS011;68326;52.124;5.424;2023-10-31T06:34:24;2.40;;;1.10;;
71975;SDS011;68326;52.124;5.424;2023-10-31T06:36:51;3.08;;;1.05;;
71975;SDS011;68326;52.124;5.424;2023-10-31T06:39:18;3.08;;;1.17;;
71975;SDS011;68326;52.124;5.424;2023-10-31T06:41:45;4.78;;;1.40;;
71975;SDS011;68326;52.124;5.424;2023-10-31T06:44:11;3.17;;;1.03;;
71975;SDS011;68326;52.124;5.424;2023-10-31T06:46:38;3.15;;;0.75;;
71975;SDS011;68326;52.124;5.424;2023-10-31T06:49:04;2.45;;;0.90;;
71975;SDS011;68326;52.124;5.424;2023-10-31T06:51:31;2.13;;;0.60;;
71975;SDS011;68326;52.124;5.424;2023-10-31T06:53:57;2.20;;;0.57;;
71975;SDS011;68326;52.124;5.424;2023-10-31T06:56:24;2.47;;;0.50;;
71975;SDS011;68326;52.124;5.424;2023-10-31T06:58:50;1.25;;;0.40;;
71975;SDS011;68326;52.124;5.424;2023-10-31T07:01:17;1.33;;;0.40;;
71975;SDS011;68326;52.124;5.424;2023-10-31T07:03:45;2.25;;;0.40;;
71975;SDS011;68326;52.124;5.424;2023-10-31T07:06:13;1.00;;;0.30;;
71975;SDS011;68326;52.124;5.424;2023-10-31T07:08:40;2.47;;;0.20;;
71975;SDS011;68326;52.124;5.424;2023-10-31T07:11:06;0.43;;;0.10;;
71975;SDS011;68326;52.124;5.424;2023-10-31T07:13:33;0.63;;;0.20;;
71975;SDS011;68326;52.124;5.424;2023-10-31T07:15:59;0.95;;;0.10;;
71975;SDS011;68326;52.124;5.424;2023-10-31T07:18:26;1.35;;;0.10;;
71975;SDS011;68326;52.124;5.424;2023-10-31T07:20:53;3.83;;;0.20;;
71975;SDS011;68326;52.124;5.424;2023-10-31T07:23:19;2.83;;;0.20;;
71975;SDS011;68326;52.124;5.424;2023-10-31T07:25:46;0.98;;;0.20;;
71975;SDS011;68326;52.124;5.424;2023-10-31T07:28:12;1.58;;;0.30;;
71975;SDS011;68326;52.124;5.424;2023-10-31T07:30:39;1.05;;;0.10;;
71975;SDS011;68326;52.124;5.424;2023-10-31T07:33:05;0.60;;;0.10;;
71975;SDS011;68326;52.124;5.424;2023-10-31T07:35:32;1.13;;;0.20;;
71975;SDS011;68326;52.124;5.424;2023-10-31T07:37:59;3.92;;;0.68;;
71975;SDS011;68326;52.124;5.424;2023-10-31T07:40:25;1.48;;;0.20;;
71975;SDS011;68326;52.124;5.424;2023-10-31T07:42:52;1.02;;;0.13;;
71975;SDS011;68326;52.124;5.424;2023-10-31T07:45:18;3.37;;;0.40;;
71975;SDS011;68326;52.124;5.424;2023-10-31T07:47:45;0.73;;;0.20;;
71975;SDS011;68326;52.124;5.424;2023-10-31T07:50:11;0.73;;;0.20;;
71975;SDS011;68326;52.124;5.424;2023-10-31T07:52:39;0.93;;;0.30;;
71975;SDS011;68326;52.124;5.424;2023-10-31T07:55:06;2.85;;;0.20;;
71975;SDS011;68326;52.124;5.424;2023-10-31T07:57:33;0.93;;;0.43;;
71975;SDS011;68326;52.124;5.424;2023-10-31T07:59:59;1.25;;;0.35;;
71975;SDS011;68326;52.124;5.424;2023-10-31T08:02:25;1.55;;;0.20;;
71975;SDS011;68326;52.124;5.424;2023-10-31T08:04:52;1.63;;;0.50;;
71975;SDS011;68326;52.124;5.424;2023-10-31T08:07:18;1.85;;;0.30;;
71975;SDS011;68326;52.124;5.424;2023-10-31T08:09:45;1.60;;;0.20;;
71975;SDS011;68326;52.124;5.424;2023-10-31T08:12:11;1.17;;;0.30;;
71975;SDS011;68326;52.124;5.424;2023-10-31T08:14:38;1.00;;;0.20;;
71975;SDS011;68326;52.124;5.424;2023-10-31T08:17:04;0.88;;;0.38;;
71975;SDS011;68326;52.124;5.424;2023-10-31T08:19:31;2.00;;;0.73;;
71975;SDS011;68326;52.124;5.424;2023-10-31T08:21:57;2.17;;;0.50;;
71975;SDS011;68326;52.124;5.424;2023-10-31T08:24:24;3.75;;;0.47;;
71975;SDS011;68326;52.124;5.424;2023-10-31T08:26:51;3.40;;;0.65;;
71975;SDS011;68326;52.124;5.424;2023-10-31T08:29:17;1.50;;;0.40;;
71975;SDS011;68326;52.124;5.424;2023-10-31T08:31:44;3.15;;;0.60;;
71975;SDS011;68326;52.124;5.424;2023-10-31T08:34:10;3.10;;;0.50;;
71975;SDS011;68326;52.124;5.424;2023-10-31T08:36:37;4.28;;;0.73;;
71975;SDS011;68326;52.124;5.424;2023-10-31T08:39:05;2.58;;;0.43;;
71975;SDS011;68326;52.124;5.424;2023-10-31T08:41:33;2.40;;;0.70;;
71975;SDS011;68326;52.124;5.424;2023-10-31T08:43:59;2.30;;;0.50;;
71975;SDS011;68326;52.124;5.424;2023-10-31T08:46:29;5.67;;;0.90;;
71975;SDS011;68326;52.124;5.424;2023-10-31T08:48:56;6.13;;;0.93;;
71975;SDS011;68326;52.124;5.424;2023-10-31T08:51:22;3.00;;;0.98;;
71975;SDS011;68326;52.124;5.424;2023-10-31T08:53:49;2.10;;;0.60;;
71975;SDS011;68326;52.124;5.424;2023-10-31T08:56:16;2.88;;;0.57;;
71975;SDS011;68326;52.124;5.424;2023-10-31T08:58:42;4.03;;;0.70;;
71975;SDS011;68326;52.124;5.424;2023-10-31T09:01:09;5.45;;;0.70;;
71975;SDS011;68326;52.124;5.424;2023-10-31T09:03:36;4.05;;;0.70;;
71975;SDS011;68326;52.124;5.424;2023-10-31T09:06:02;2.13;;;0.55;;
71975;SDS011;68326;52.124;5.424;2023-10-31T09:08:29;3.92;;;0.60;;
71975;SDS011;68326;52.124;5.424;2023-10-31T09:10:56;2.90;;;0.52;;
71975;SDS011;68326;52.124;5.424;2023-10-31T09:13:22;3.47;;;0.68;;
71975;SDS011;68326;52.124;5.424;2023-10-31T09:15:49;3.28;;;0.52;;
71975;SDS011;68326;52.124;5.424;2023-10-31T09:18:16;3.67;;;0.80;;
71975;SDS011;68326;52.124;5.424;2023-10-31T09:20:42;2.47;;;0.60;;
71975;SDS011;68326;52.124;5.424;2023-10-31T09:23:09;2.10;;;0.40;;
71975;SDS011;68326;52.124;5.424;2023-10-31T09:25:35;2.10;;;0.50;;
71975;SDS011;68326;52.124;5.424;2023-10-31T09:28:02;4.47;;;0.80;;
71975;SDS011;68326;52.124;5.424;2023-10-31T09:30:29;4.45;;;0.60;;
71975;SDS011;68326;52.124;5.424;2023-10-31T09:32:55;4.63;;;0.88;;
71975;SDS011;68326;52.124;5.424;2023-10-31T09:35:22;4.03;;;1.00;;
71975;SDS011;68326;52.124;5.424;2023-10-31T09:37:49;3.50;;;1.17;;
71975;SDS011;68326;52.124;5.424;2023-10-31T09:40:15;4.13;;;0.80;;
71975;SDS011;68326;52.124;5.424;2023-10-31T09:42:43;4.47;;;0.90;;
71975;SDS011;68326;52.124;5.424;2023-10-31T09:45:12;2.38;;;0.90;;
71975;SDS011;68326;52.124;5.424;2023-10-31T09:47:39;5.53;;;0.90;;
71975;SDS011;68326;52.124;5.424;2023-10-31T09:50:07;6.05;;;1.08;;
71975;SDS011;68326;52.124;5.424;2023-10-31T09:52:35;3.92;;;0.80;;
71975;SDS011;68326;52.124;5.424;2023-10-31T09:55:02;2.10;;;0.95;;
71975;SDS011;68326;52.124;5.424;2023-10-31T09:57:29;2.90;;;0.77;;
71975;SDS011;68326;52.124;5.424;2023-10-31T09:59:56;4.03;;;0.80;;
71975;SDS011;68326;52.124;5.424;2023-10-31T10:02:22;4.97;;;0.67;;
71975;SDS011;68326;52.124;5.424;2023-10-31T10:04:49;2.45;;;0.57;;
71975;SDS011;68326;52.124;5.424;2023-10-31T10:07:16;2.95;;;0.75;;
71975;SDS011;68326;52.124;5.424;2023-10-31T10:09:45;4.00;;;0.80;;
71975;SDS011;68326;52.124;5.424;2023-10-31T10:12:13;2.35;;;0.60;;
71975;SDS011;68326;52.124;5.424;2023-10-31T10:14:40;2.60;;;0.63;;
71975;SDS011;68326;52.124;5.424;2023-10-31T10:17:17;3.88;;;0.85;;
71975;SDS011;68326;52.124;5.424;2023-10-31T10:19:46;3.35;;;0.80;;
71975;SDS011;68326;52.124;5.424;2023-10-31T10:22:13;4.22;;;0.80;;
71975;SDS011;68326;52.124;5.424;2023-10-31T10:24:41;3.33;;;0.88;;
71975;SDS011;68326;52.124;5.424;2023-10-31T10:27:08;5.13;;;0.70;;
71975;SDS011;68326;52.124;5.424;2023-10-31T10:29:35;3.97;;;1.10;;
71975;SDS011;68326;52.124;5.424;2023-10-31T10:32:04;2.22;;;0.77;;
71975;SDS011;68326;52.124;5.424;2023-10-31T10:34:34;2.60;;;0.50;;
71975;SDS011;68326;52.124;5.424;2023-10-31T10:37:02;1.88;;;0.50;;
71975;SDS011;68326;52.124;5.424;2023-10-31T10:39:32;3.90;;;0.87;;
71975;SDS011;68326;52.124;5.424;2023-10-31T10:42:01;2.63;;;0.65;;
71975;SDS011;68326;52.124;5.424;2023-10-31T10:44:30;6.53;;;0.80;;
71975;SDS011;68326;52.124;5.424;2023-10-31T10:47:01;4.63;;;1.00;;
71975;SDS011;68326;52.124;5.424;2023-10-31T10:49:32;4.38;;;0.90;;
71975;SDS011;68326;52.124;5.424;2023-10-31T10:55:25;2.33;;;0.68;;
71975;SDS011;68326;52.124;5.424;2023-10-31T10:58:05;3.63;;;0.60;;
71975;SDS011;68326;52.124;5.424;2023-10-31T11:00:34;4.20;;;0.80;;
71975;SDS011;68326;52.124;5.424;2023-10-31T11:03:01;3.28;;;0.88;;
71975;SDS011;68326;52.124;5.424;2023-10-31T11:05:28;5.00;;;0.93;;
71975;SDS011;68326;52.124;5.424;2023-10-31T11:07:55;3.53;;;0.90;;
71975;SDS011;68326;52.124;5.424;2023-10-31T11:10:25;4.90;;;0.95;;
71975;SDS011;68326;52.124;5.424;2023-10-31T11:12:53;3.15;;;0.70;;
71975;SDS011;68326;52.124;5.424;2023-10-31T11:15:19;4.22;;;0.90;;
71975;SDS011;68326;52.124;5.424;2023-10-31T11:17:46;3.40;;;1.07;;
71975;SDS011;68326;52.124;5.424;2023-10-31T11:20:15;3.30;;;1.10;;
71975;SDS011;68326;52.124;5.424;2023-10-31T11:22:43;3.88;;;0.90;;
71975;SDS011;68326;52.124;5.424;2023-10-31T11:25:15;5.38;;;0.80;;
71975;SDS011;68326;52.124;5.424;2023-10-31T11:27:58;2.47;;;1.05;;
71975;SDS011;68326;52.124;5.424;2023-10-31T11:30:39;4.20;;;0.67;;
71975;SDS011;68326;52.124;5.424;2023-10-31T11:33:06;2.80;;;1.00;;
71975;SDS011;68326;52.124;5.424;2023-10-31T11:35:41;2.75;;;0.93;;
71975;SDS011;68326;52.124;5.424;2023-10-31T11:38:11;3.65;;;0.60;;
71975;SDS011;68326;52.124;5.424;2023-10-31T11:40:59;1.52;;;0.50;;
71975;SDS011;68326;52.124;5.424;2023-10-31T11:46:06;5.20;;;0.77;;
71975;SDS011;68326;52.124;5.424;2023-10-31T11:48:46;7.25;;;0.90;;
71975;SDS011;68326;52.124;5.424;2023-10-31T11:51:13;3.83;;;1.60;;
71975;SDS011;68326;52.124;5.424;2023-10-31T11:53:40;4.28;;;1.52;;
71975;SDS011;68326;52.124;5.424;2023-10-31T11:56:07;4.47;;;1.60;;
71975;SDS011;68326;52.124;5.424;2023-10-31T11:58:36;4.47;;;1.95;;
71975;SDS011;68326;52.124;5.424;2023-10-31T12:01:03;3.97;;;1.73;;
71975;SDS011;68326;52.124;5.424;2023-10-31T12:03:41;3.60;;;1.80;;
71975;SDS011;68326;52.124;5.424;2023-10-31T12:06:09;6.82;;;1.92;;
71975;SDS011;68326;52.124;5.424;2023-10-31T12:08:37;4.15;;;2.40;;
71975;SDS011;68326;52.124;5.424;2023-10-31T12:11:05;7.32;;;2.78;;
71975;SDS011;68326;52.124;5.424;2023-10-31T12:13:40;8.05;;;3.45;;
71975;SDS011;68326;52.124;5.424;2023-10-31T12:16:09;10.52;;;3.97;;
71975;SDS011;68326;52.124;5.424;2023-10-31T12:18:37;9.40;;;4.20;;
71975;SDS011;68326;52.124;5.424;2023-10-31T12:21:07;9.63;;;5.47;;
71975;SDS011;68326;52.124;5.424;2023-10-31T12:23:34;14.25;;;6.07;;
71975;SDS011;68326;52.124;5.424;2023-10-31T12:26:01;13.60;;;6.22;;
71975;SDS011;68326;52.124;5.424;2023-10-31T12:28:27;11.35;;;6.18;;
71975;SDS011;68326;52.124;5.424;2023-10-31T12:30:55;16.17;;;6.90;;
71975;SDS011;68326;52.124;5.424;2023-10-31T12:33:24;15.25;;;7.40;;
71975;SDS011;68326;52.124;5.424;2023-10-31T12:35:55;16.60;;;7.05;;
71975;SDS011;68326;52.124;5.424;2023-10-31T12:38:24;16.15;;;7.82;;
71975;SDS011;68326;52.124;5.424;2023-10-31T12:40:51;19.13;;;8.38;;
71975;SDS011;68326;52.124;5.424;2023-10-31T12:43:18;17.85;;;7.35;;
71975;SDS011;68326;52.124;5.424;2023-10-31T12:45:45;17.42;;;6.93;;
71975;SDS011;68326;52.124;5.424;2023-10-31T12:48:11;19.02;;;7.95;;
71975;SDS011;68326;52.124;5.424;2023-10-31T12:50:38;16.27;;;6.63;;
71975;SDS011;68326;52.124;5.424;2023-10-31T12:53:06;15.52;;;7.10;;
71975;SDS011;68326;52.124;5.424;2023-10-31T12:55:39;14.13;;;6.40;;
71975;SDS011;68326;52.124;5.424;2023-10-31T12:58:07;17.17;;;7.43;;
71975;SDS011;68326;52.124;5.424;2023-10-31T13:00:36;15.73;;;7.70;;
71975;SDS011;68326;52.124;5.424;2023-10-31T13:03:07;18.35;;;6.90;;
71975;SDS011;68326;52.124;5.424;2023-10-31T13:05:35;21.00;;;8.68;;
71975;SDS011;68326;52.124;5.424;2023-10-31T13:08:10;17.58;;;7.78;;
71975;SDS011;68326;52.124;5.424;2023-10-31T13:10:40;19.00;;;8.07;;
71975;SDS011;68326;52.124;5.424;2023-10-31T13:13:09;17.30;;;7.38;;
71975;SDS011;68326;52.124;5.424;2023-10-31T13:15:36;21.25;;;8.00;;
71975;SDS011;68326;52.124;5.424;2023-10-31T13:18:04;18.63;;;7.05;;
71975;SDS011;68326;52.124;5.424;2023-10-31T13:20:30;17.58;;;7.00;;
71975;SDS011;68326;52.124;5.424;2023-10-31T13:22:58;16.70;;;7.60;;
71975;SDS011;68326;52.124;5.424;2023-10-31T13:25:24;17.13;;;6.65;;
71975;SDS011;68326;52.124;5.424;2023-10-31T13:27:51;15.90;;;7.15;;
71975;SDS011;68326;52.124;5.424;2023-10-31T13:30:19;15.55;;;6.57;;
71975;SDS011;68326;52.124;5.424;2023-10-31T13:32:47;18.20;;;7.17;;
71975;SDS011;68326;52.124;5.424;2023-10-31T13:35:14;16.67;;;7.70;;
71975;SDS011;68326;52.124;5.424;2023-10-31T13:37:41;16.48;;;6.50;;
71975;SDS011;68326;52.124;5.424;2023-10-31T13:40:07;20.05;;;6.80;;
71975;SDS011;68326;52.124;5.424;2023-10-31T13:42:39;18.65;;;7.00;;
71975;SDS011;68326;52.124;5.424;2023-10-31T13:45:06;15.73;;;6.73;;
71975;SDS011;68326;52.124;5.424;2023-10-31T13:47:33;15.45;;;5.95;;
71975;SDS011;68326;52.124;5.424;2023-10-31T13:50:00;13.35;;;6.45;;
71975;SDS011;68326;52.124;5.424;2023-10-31T13:52:26;14.57;;;7.13;;
71975;SDS011;68326;52.124;5.424;2023-10-31T13:54:53;14.80;;;6.43;;
71975;SDS011;68326;52.124;5.424;2023-10-31T13:57:19;16.10;;;6.07;;
71975;SDS011;68326;52.124;5.424;2023-10-31T13:59:46;14.20;;;5.70;;
71975;SDS011;68326;52.124;5.424;2023-10-31T14:02:12;13.88;;;5.07;;
71975;SDS011;68326;52.124;5.424;2023-10-31T14:04:39;9.23;;;5.18;;
71975;SDS011;68326;52.124;5.424;2023-10-31T14:07:05;13.43;;;5.40;;
71975;SDS011;68326;52.124;5.424;2023-10-31T14:09:32;12.10;;;5.07;;
71975;SDS011;68326;52.124;5.424;2023-10-31T14:11:59;13.77;;;5.45;;
71975;SDS011;68326;52.124;5.424;2023-10-31T14:14:26;13.32;;;5.78;;
71975;SDS011;68326;52.124;5.424;2023-10-31T14:16:52;12.43;;;5.80;;
71975;SDS011;68326;52.124;5.424;2023-10-31T14:19:19;10.10;;;5.35;;
71975;SDS011;68326;52.124;5.424;2023-10-31T14:21:45;14.13;;;5.20;;
71975;SDS011;68326;52.124;5.424;2023-10-31T14:24:12;13.52;;;5.70;;
71975;SDS011;68326;52.124;5.424;2023-10-31T14:26:39;13.73;;;6.05;;
71975;SDS011;68326;52.124;5.424;2023-10-31T14:29:08;11.43;;;6.40;;
71975;SDS011;68326;52.124;5.424;2023-10-31T14:31:37;13.60;;;6.05;;
71975;SDS011;68326;52.124;5.424;2023-10-31T14:34:05;12.13;;;6.30;;
71975;SDS011;68326;52.124;5.424;2023-10-31T14:36:32;10.55;;;6.05;;
71975;SDS011;68326;52.124;5.424;2023-10-31T14:38:59;11.55;;;5.78;;
71975;SDS011;68326;52.124;5.424;2023-10-31T14:41:25;14.35;;;6.82;;
71975;SDS011;68326;52.124;5.424;2023-10-31T14:43:51;12.95;;;6.45;;
71975;SDS011;68326;52.124;5.424;2023-10-31T14:46:18;17.33;;;7.13;;
71975;SDS011;68326;52.124;5.424;2023-10-31T14:48:45;13.18;;;6.70;;
71975;SDS011;68326;52.124;5.424;2023-10-31T14:51:11;14.68;;;7.28;;
71975;SDS011;68326;52.124;5.424;2023-10-31T14:53:38;13.35;;;6.18;;